Latest Weather Observations for Redcliffe

IDQ60901

Issued at 8:55 am EST Friday 21 November 2014 (issued every 10 minutes, with the page automatically refreshed every 10 minutes)

About weather observations | Map of Brisbane area stations | Latest observations for Brisbane area | Other Formats
Station Details ID: 040958 Name: REDCLIFFE Lat: -27.22 Lon: 153.09 Height: 12.6 m
Data from the previous 72 hours. | See also: Recent months at Redcliffe
Date/Time
EST
Tmp

°C
App
Tmp
°C
Dew
Point
°C
Rel
Hum
%
Delta-T

°C
Wind Press
QNH
hPa
Press
MSL
hPa
Rain
since
9 am
mm
Dir
 
Spd
km/h
Gust
km/h
Spd
kts
Gust
kts
21/08:30am 27.0 25.5 20.3 66 4.4 N 28 30 15 16 1016.0 1015.9 0.0
21/08:00am 26.1 25.1 20.4 71 3.7 N 26 32 14 17 1016.0 1015.9 0.0
21/07:30am 25.3 25.0 20.3 74 3.3 N 22 32 12 17 1016.4 1016.3 0.0
21/07:00am 25.0 23.3 20.5 76 2.9 N 30 35 16 19 1016.3 1016.2 0.0
21/06:30am 24.6 24.3 21.1 81 2.3 N 24 32 13 17 1016.1 1016.0 0.0
21/06:00am 24.2 22.9 20.7 81 2.3 N 28 33 15 18 1015.6 1015.5 0.0
21/05:30am 23.8 23.5 20.3 81 2.3 N 22 30 12 16 1015.3 1015.2 0.0
21/05:00am 23.6 23.8 20.5 83 2.0 N 20 30 11 16 1015.1 1015.0 0.0
21/04:30am 23.7 23.5 20.6 83 2.0 N 22 28 12 15 1015.0 1014.9 0.0
21/04:00am 23.7 23.8 20.4 82 2.1 N 20 30 11 16 1014.8 1014.7 0.0
21/03:30am 23.7 24.0 20.4 82 2.1 N 19 28 10 15 1014.5 1014.4 0.0
21/03:00am 23.6 24.4 20.7 84 1.9 N 17 24 9 13 1014.8 1014.7 0.0
21/02:30am 23.9 23.7 20.6 82 2.2 N 22 33 12 18 1014.9 1014.8 0.0
21/02:00am 24.1 24.4 20.8 82 2.2 N 20 30 11 16 1014.9 1014.8 0.0
21/01:30am 24.0 22.8 20.9 83 2.0 N 28 37 15 20 1014.7 1014.6 0.0
21/01:00am 24.1 22.0 20.6 81 2.3 N 32 35 17 19 1015.0 1014.9 0.0
21/12:30am 24.3 22.4 21.0 82 2.2 N 32 39 17 21 1015.3 1015.2 0.0
21/12:00am 24.3 22.7 20.8 81 2.3 N 30 35 16 19 1015.8 1015.7 0.0
 
Date/Time
EST
Tmp

°C
App
Tmp
°C
Dew
Point
°C
Rel
Hum
%
Delta-T

°C
Wind Press
QNH
hPa
Press
MSL
hPa
Rain
since
9 am
mm
Dir
 
Spd
km/h
Gust
km/h
Spd
kts
Gust
kts
20/11:30pm 24.3 24.2 20.8 81 2.3 N 22 35 12 19 1016.1 1016.0 0.0
20/11:00pm 24.4 23.5 20.7 80 2.4 N 26 33 14 18 1016.5 1016.4 0.0
20/10:30pm 24.4 23.1 20.7 80 2.4 N 28 35 15 19 1016.9 1016.8 0.0
20/10:00pm 24.4 23.4 20.5 79 2.5 N 26 33 14 18 1016.8 1016.7 0.0
20/09:30pm 24.5 22.6 20.2 77 2.8 N 30 39 16 21 1016.8 1016.7 0.0
20/09:00pm 24.7 22.3 21.0 80 2.4 N 35 41 19 22 1016.6 1016.5 0.0
20/08:30pm 24.7 21.7 20.6 78 2.7 N 37 44 20 24 1016.3 1016.2 0.0
20/08:00pm 24.7 22.2 20.8 79 2.6 N 35 41 19 22 1016.2 1016.1 0.0
20/07:30pm 24.7 22.5 20.8 79 2.6 N 33 41 18 22 1015.9 1015.8 0.0
20/07:00pm 24.8 22.7 20.9 79 2.6 NNE 33 39 18 21 1015.5 1015.4 0.0
20/06:30pm 24.7 22.2 20.8 79 2.6 NNE 35 41 19 22 1015.3 1015.2 0.0
20/06:00pm 24.9 22.2 20.4 76 2.9 NNE 35 41 19 22 1015.2 1015.1 0.0
20/05:30pm 25.3 22.6 20.5 75 3.1 NNE 35 39 19 21 1014.8 1014.7 0.0
20/05:00pm 25.5 22.2 20.1 72 3.5 NNE 37 41 20 22 1014.5 1014.4 0.0
20/04:30pm 26.3 23.2 19.7 67 4.3 NNE 35 39 19 21 1014.4 1014.3 0.0
20/04:00pm 26.7 24.2 20.1 67 4.3 NE 33 39 18 21 1014.5 1014.4 0.0
20/03:30pm 26.6 24.0 19.5 65 4.6 NE 32 37 17 20 1014.7 1014.6 0.0
20/03:00pm 25.6 22.8 20.2 72 3.5 NE 35 41 19 22 1015.0 1014.9 0.0
20/02:30pm 26.5 24.1 20.3 68 4.1 NE 33 39 18 21 1014.9 1014.8 0.0
20/02:00pm 26.1 23.8 20.2 70 3.8 NE 32 35 17 19 1015.5 1015.4 0.0
20/01:30pm 26.6 25.0 20.7 70 3.9 NE 30 35 16 19 1015.7 1015.6 0.0
20/01:00pm 26.8 25.4 20.4 68 4.2 NE 28 32 15 17 1015.9 1015.8 0.0
20/12:30pm 26.5 25.0 19.4 65 4.6 NE 26 30 14 16 1016.4 1016.3 0.0
20/12:00pm 25.8 23.6 18.7 65 4.5 ENE 28 30 15 16 1016.7 1016.6 0.0
20/11:30am 26.2 24.5 19.8 68 4.2 ENE 28 30 15 16 1017.1 1017.0 0.0
20/11:00am 25.7 24.0 18.9 66 4.3 ENE 26 28 14 15 1017.7 1017.6 0.0
20/10:30am 26.5 26.2 19.1 64 4.8 ENE 19 26 10 14 1018.1 1018.0 0.0
20/10:00am 25.5 25.6 17.4 61 5.0 ENE 13 17 7 9 1018.5 1018.4 0.0
20/09:30am 25.8 26.4 17.7 61 5.1 NE 11 15 6 8 1018.7 1018.6 0.0
20/09:00am 24.9 24.5 16.1 58 5.4 NNE 13 15 7 8 1018.4 1018.3 28.6
20/08:30am 24.8 24.4 16.2 58 5.3 NNE 13 17 7 9 1018.5 1018.4 28.6
20/08:00am 24.4 24.0 17.1 63 4.5 NNE 15 19 8 10 1018.4 1018.3 28.6
20/07:30am 23.8 24.6 19.1 75 3.0 NNE 13 15 7 8 1018.6 1018.5 28.6
20/07:00am 23.7 24.2 17.4 68 3.9 NNE 11 15 6 8 1018.3 1018.2 28.6
20/06:30am 23.3 25.1 18.4 74 3.1 ENE 6 9 3 5 1018.1 1018.0 28.6
20/06:00am 23.3 25.1 18.8 76 2.8 NE 7 9 4 5 1017.7 1017.6 28.6
20/05:30am 22.3 24.4 19.3 83 1.9 ESE 7 9 4 5 1017.4 1017.3 28.6
20/05:00am 20.1 20.8 18.0 88 1.3 SSE 11 13 6 7 1017.2 1017.1 28.6
20/04:30am 20.1 21.7 17.9 87 1.4 S 6 9 3 5 1016.6 1016.5 28.6
20/04:00am 19.9 21.4 17.5 86 1.5 WSW 6 9 3 5 1016.1 1016.0 28.6
20/03:30am 19.9 21.1 17.3 85 1.6 W 7 11 4 6 1016.0 1015.9 28.6
20/03:00am 20.1 21.0 17.5 85 1.6 W 9 11 5 6 1015.7 1015.6 28.6
20/02:30am 20.6 21.4 17.4 82 2.0 WNW 9 13 5 7 1016.0 1015.9 28.6
20/02:00am 21.3 21.9 17.7 80 2.2 NNW 11 15 6 8 1015.8 1015.7 28.6
20/01:30am 21.6 22.2 17.8 79 2.4 N 11 15 6 8 1015.9 1015.8 28.6
20/01:00am 21.6 21.5 17.8 79 2.4 N 15 20 8 11 1016.0 1015.9 28.6
20/12:30am 21.6 21.1 17.8 79 2.4 N 17 26 9 14 1016.4 1016.3 28.6
20/12:00am 21.6 19.8 17.8 79 2.4 N 24 33 13 18 1016.9 1016.8 28.6
 
Date/Time
EST
Tmp

°C
App
Tmp
°C
Dew
Point
°C
Rel
Hum
%
Delta-T

°C
Wind Press
QNH
hPa
Press
MSL
hPa
Rain
since
9 am
mm
Dir
 
Spd
km/h
Gust
km/h
Spd
kts
Gust
kts
19/11:30pm 21.6 19.2 17.4 77 2.6 N 26 32 14 17 1017.0 1016.9 28.6
19/11:00pm 21.4 19.8 17.4 78 2.5 N 22 33 12 18 1017.6 1017.5 28.6
19/10:30pm 21.5 21.3 17.7 79 2.3 N 15 19 8 10 1018.0 1017.9 28.6
19/10:00pm 21.8 20.9 17.8 78 2.5 N 19 28 10 15 1018.2 1018.1 28.6
19/09:30pm 22.1 21.7 18.1 78 2.5 N 17 24 9 13 1018.5 1018.4 28.6
19/09:00pm 22.0 22.3 18.8 82 2.0 N 15 26 8 14 1018.4 1018.3 28.6
19/08:30pm 22.1 21.4 18.7 81 2.1 N 20 28 11 15 1017.7 1017.6 28.6
19/08:00pm 22.6 20.8 18.8 79 2.4 N 26 35 14 19 1017.2 1017.1 28.6
19/07:30pm 22.6 19.5 18.8 79 2.4 N 33 39 18 21 1016.8 1016.7 28.6
19/07:00pm 22.6 17.7 19.4 82 2.0 NNE 44 52 24 28 1015.6 1015.5 28.6
19/06:30pm 22.3 19.4 20.0 87 1.5 NE 35 41 19 22 1015.6 1015.5 28.6
19/06:24pm 22.6 19.1 20.3 87 1.5 NE 39 41 21 22 1015.7 1015.6 28.6
19/06:00pm 21.0 19.1 19.3 90 1.1 E 28 35 15 19 1015.4 1015.3 28.4
19/05:38pm 20.4 17.4 19.1 92 0.8 ENE 33 39 18 21 1015.7 1015.6 28.4
19/05:30pm 20.0 15.7 18.7 92 0.8 E 39 54 21 29 1015.3 1015.2 28.0
19/05:27pm 19.9 14.8 18.6 92 0.8 E 43 54 23 29 1015.1 1015.0 27.6
19/05:23pm 20.0 9.8 18.7 92 0.8 E 70 91 38 49 1015.1 1015.0 27.0
19/05:19pm 19.1 7.7 17.6 91 0.9 E 74 87 40 47 1015.4 1015.3 25.4
19/05:15pm 19.1 6.5 17.4 90 1.0 SE 80 106 43 57 1014.8 1014.7 24.2
19/05:06pm 21.2 13.7 19.1 88 1.3 S 57 95 31 51 1015.3 1015.2 13.2
19/05:05pm 21.1 14.0 18.9 87 1.4 S 54 72 29 39 1015.4 1015.3 11.4
19/05:03pm 21.0 18.7 18.4 85 1.6 SSW 28 54 15 29 1015.5 1015.4 8.2
19/05:00pm 21.2 19.7 17.8 81 2.1 SSW 22 35 12 19 1015.3 1015.2 3.2
19/04:30pm 24.8 22.8 21.1 80 2.4 NE 33 39 18 21 1014.0 1013.9 0.0
19/04:00pm 25.1 23.0 20.6 76 2.9 NE 32 37 17 20 1014.3 1014.2 0.0
19/03:30pm 25.0 22.9 20.5 76 2.9 NE 32 35 17 19 1014.5 1014.4 0.0
19/03:00pm 25.4 23.7 21.3 78 2.7 NE 32 37 17 20 1014.3 1014.2 0.0
19/02:30pm 26.6 24.7 20.9 71 3.8 NE 32 33 17 18 1014.6 1014.5 0.0
19/02:00pm 26.5 25.0 21.0 72 3.6 NE 30 33 16 18 1015.0 1014.9 0.0
19/01:30pm 27.3 25.9 21.1 69 4.1 NE 30 33 16 18 1015.4 1015.3 0.0
19/01:00pm 27.2 26.0 20.8 68 4.2 NE 28 30 15 16 1016.0 1015.9 0.0
19/12:30pm 27.2 26.5 20.3 66 4.5 NE 24 28 13 15 1016.3 1016.2 0.0
19/12:00pm 26.8 26.4 20.2 67 4.3 NE 22 28 12 15 1016.5 1016.4 0.0
19/11:30am 28.1 29.0 21.9 69 4.2 ENE 20 24 11 13 1016.7 1016.6 0.0
19/11:00am 27.2 27.2 19.8 64 4.8 ENE 19 24 10 13 1016.9 1016.8 0.0
19/10:30am 28.4 29.3 20.9 64 5.0 ENE 17 19 9 10 1017.3 1017.2 0.0
19/10:00am 27.4 27.7 19.7 63 5.0 ENE 17 19 9 10 1017.7 1017.6 0.0
19/09:30am 27.3 28.1 19.9 64 4.8 NE 15 17 8 9 1017.8 1017.7 0.0
19/09:00am 27.0 27.8 19.9 65 4.6 NE 15 19 8 10 1017.9 1017.8 3.6
19/08:30am 26.5 27.7 20.6 70 3.9 ENE 15 19 8 10 1017.7 1017.6 3.6
19/08:00am 26.0 28.0 20.8 73 3.4 ENE 11 13 6 7 1017.5 1017.4 3.6
19/07:30am 25.2 27.5 20.7 76 2.9 NE 9 11 5 6 1017.1 1017.0 3.6
19/07:00am 24.9 28.0 21.4 81 2.3 NNE 7 9 4 5 1017.1 1017.0 3.6
19/06:30am 24.5 27.6 21.4 83 2.0 NNE 7 9 4 5 1016.7 1016.6 3.6
19/06:00am 24.4 27.6 21.7 85 1.8 N 7 9 4 5 1016.3 1016.2 3.6
19/05:30am 23.9 26.9 21.2 85 1.8 N 7 9 4 5 1015.8 1015.7 3.6
19/05:00am 23.8 26.0 21.1 85 1.8 N 11 13 6 7 1015.5 1015.4 3.6
19/04:30am 23.4 26.1 21.3 88 1.4 NE 9 11 5 6 1015.3 1015.2 3.6
19/04:00am 23.1 25.6 21.0 88 1.4 NE 9 11 5 6 1014.9 1014.8 3.6
19/03:30am 22.7 25.7 20.8 89 1.2 NE 6 11 3 6 1014.8 1014.7 3.6
19/03:00am 22.5 25.7 20.4 88 1.4 ENE 4 7 2 4 1014.6 1014.5 3.6
19/02:30am 22.5 26.4 20.4 88 1.4 CALM 0 0 0 0 1014.7 1014.6 3.6
19/02:00am 22.6 26.5 20.3 87 1.5 CALM 0 0 0 0 1014.6 1014.5 3.6
19/01:30am 22.7 25.4 20.2 86 1.6 W 6 7 3 4 1014.8 1014.7 3.6
19/01:00am 22.8 25.4 20.5 87 1.5 W 7 9 4 5 1015.0 1014.9 3.6
19/12:30am 23.1 25.4 20.6 86 1.6 W 9 13 5 7 1015.2 1015.1 3.6
19/12:00am 23.8 25.1 20.9 84 1.9 N 15 19 8 10 1015.5 1015.4 3.6
 
Date/Time
EST
Tmp

°C
App
Tmp
°C
Dew
Point
°C
Rel
Hum
%
Delta-T

°C
Wind Press
QNH
hPa
Press
MSL
hPa
Rain
since
9 am
mm
Dir
 
Spd
km/h
Gust
km/h
Spd
kts
Gust
kts
18/11:30pm 24.8 25.2 21.7 83 2.1 N 22 26 12 14 1015.7 1015.6 3.6
18/11:00pm 24.7 25.6 22.0 85 1.8 NNE 20 26 11 14 1015.5 1015.4 3.6
18/10:30pm 24.6 25.8 21.5 83 2.1 NE 17 19 9 10 1015.8 1015.7 3.6
18/10:00pm 24.5 26.3 21.2 82 2.2 NNE 13 17 7 9 1016.2 1016.1 3.6
18/09:30pm 24.5 26.3 21.2 82 2.2 NE 13 17 7 9 1015.7 1015.6 3.6
18/09:00pm 24.5 25.6 21.2 82 2.2 NNE 17 19 9 10 1015.7 1015.6 3.6
18/08:30pm 24.7 26.7 20.8 79 2.6 N 11 15 6 8 1015.1 1015.0 3.6
18/08:00pm 24.9 26.2 20.8 78 2.7 N 15 22 8 12 1014.6 1014.5 3.6
18/07:30pm 25.1 25.1 21.0 78 2.7 N 22 30 12 16 1014.4 1014.3 3.6
18/07:00pm 25.3 24.4 21.4 79 2.6 N 28 33 15 18 1014.4 1014.3 3.6
18/06:30pm 25.2 23.5 21.3 79 2.6 N 32 37 17 20 1014.2 1014.1 3.6
18/06:00pm 25.3 23.1 20.3 74 3.3 NNE 32 35 17 19 1013.5 1013.4 3.6
18/05:30pm 25.7 25.4 21.1 76 3.0 NNE 24 28 13 15 1013.2 1013.1 3.6
18/05:00pm 26.3 25.2 21.1 73 3.4 NE 28 33 15 18 1013.0 1012.9 3.6
18/04:30pm 26.7 26.5 22.1 76 3.1 NE 26 30 14 16 1012.7 1012.6 3.6
18/04:00pm 26.3 24.8 21.7 76 3.1 NE 32 33 17 18 1012.5 1012.4 3.6
18/03:30pm 26.4 25.4 21.2 73 3.4 NE 28 32 15 17 1012.5 1012.4 3.6
18/03:00pm 26.2 26.8 22.1 78 2.7 ENE 22 26 12 14 1012.7 1012.6 3.6
18/02:30pm 26.4 26.8 20.9 72 3.6 ENE 20 26 11 14 1013.1 1013.0 3.6
18/02:00pm 26.8 27.8 21.8 74 3.3 ENE 19 22 10 12 1013.4 1013.3 3.6
18/01:30pm 26.5 28.3 22.6 79 2.6 ENE 17 19 9 10 1014.0 1013.9 3.6
18/01:00pm 26.4 26.7 22.3 78 2.8 NE 24 28 13 15 1014.2 1014.1 3.6
18/12:30pm 25.0 26.1 21.9 83 2.1 E 19 20 10 11 1014.6 1014.5 3.6
18/12:00pm 24.6 25.8 22.1 86 1.7 E 19 22 10 12 1014.9 1014.8 3.4
18/11:30am 24.5 25.4 22.0 86 1.7 ENE 20 26 11 14 1015.3 1015.2 1.8
18/11:00am 24.8 25.4 22.1 85 1.8 NE 22 26 12 14 1015.6 1015.5 0.6
18/10:30am 24.8 25.2 21.7 83 2.1 NE 22 28 12 15 1015.9 1015.8 0.2
18/10:00am 25.6 25.9 21.5 78 2.7 NE 22 26 12 14 1015.9 1015.8 0.0
18/09:30am 26.3 27.2 20.8 71 3.6 ENE 17 19 9 10 1015.9 1015.8 0.0
18/09:00am 25.7 27.5 21.1 76 3.0 E 13 17 7 9 1016.0 1015.9 0.0

Latest Capital City Observations: Canberra | Sydney | Melbourne | Brisbane | Adelaide | Perth | Hobart | Darwin

Other Formats:

Comma delimited format used in spreadsheet applications
http://www.bom.gov.au/fwo/IDQ60901/IDQ60901.95591.axf

JavaScript Object Notation format (JSON) in row-major order
http://www.bom.gov.au/fwo/IDQ60901/IDQ60901.95591.json